createdAt,value
2016-01-19T00:00:58.259Z,1010.56
2016-01-19T00:01:58.308Z,1010.57
2016-01-19T00:02:58.373Z,1010.54
2016-01-19T00:03:58.423Z,1010.51
2016-01-19T00:04:58.488Z,1010.52
2016-01-19T00:05:58.538Z,1010.48
2016-01-19T00:06:58.587Z,1010.51
2016-01-19T00:07:58.652Z,1010.49
2016-01-19T00:08:58.702Z,1010.46
2016-01-19T00:09:58.752Z,1010.47
2016-01-19T00:10:58.817Z,1010.49
2016-01-19T00:11:58.867Z,1010.45
2016-01-19T00:12:58.917Z,1010.42
2016-01-19T00:13:58.998Z,1010.42
2016-01-19T00:14:59.032Z,1010.41
2016-01-19T00:15:59.098Z,1010.39
2016-01-19T00:16:59.147Z,1010.4
2016-01-19T00:17:59.196Z,1010.38
2016-01-19T00:18:59.262Z,1010.36
2016-01-19T00:19:59.312Z,1010.34
2016-01-19T00:20:59.361Z,1010.32
2016-01-19T00:21:59.442Z,1010.27
2016-01-19T00:22:59.491Z,1010.29
2016-01-19T00:23:59.541Z,1010.31
2016-01-19T00:24:59.606Z,1010.3
2016-01-19T00:25:59.655Z,1010.31
2016-01-19T00:26:59.705Z,1010.31
2016-01-19T00:27:59.770Z,1010.26
2016-01-19T00:28:59.820Z,1010.29
2016-01-19T00:29:59.869Z,1010.26
2016-01-19T00:30:59.935Z,1010.26
2016-01-19T00:31:59.983Z,1010.22
2016-01-19T00:33:00.049Z,1010.2
2016-01-19T00:34:00.099Z,1010.16
2016-01-19T00:35:00.149Z,1010.17
2016-01-19T00:36:00.214Z,1010.14
2016-01-19T00:37:00.263Z,1010.14
2016-01-19T00:38:00.313Z,1010.11
2016-01-19T00:39:00.362Z,1010.1
2016-01-19T00:40:00.427Z,1010.11
2016-01-19T00:41:00.494Z,1010.09
2016-01-19T00:42:00.544Z,1010.1
2016-01-19T00:43:00.593Z,1010.11
2016-01-19T00:44:00.659Z,1010.08
2016-01-19T00:45:00.707Z,1010.13
2016-01-19T00:46:00.757Z,1010.13
2016-01-19T00:47:00.838Z,1010.16
2016-01-19T00:48:00.872Z,1010.14
2016-01-19T00:49:00.937Z,1010.12
2016-01-19T00:50:00.986Z,1010.11
2016-01-19T00:51:01.036Z,1010.11
2016-01-19T00:52:01.101Z,1010.08
2016-01-19T00:53:01.151Z,1010.08
2016-01-19T00:54:01.201Z,1010.03
2016-01-19T00:55:01.250Z,1010.06
2016-01-19T00:56:01.332Z,1010.09
2016-01-19T00:57:01.380Z,1010.08
2016-01-19T00:58:01.430Z,1010.05
2016-01-19T00:59:01.479Z,1009.98
2016-01-19T01:00:01.529Z,1009.99
2016-01-19T01:01:01.579Z,1009.96
2016-01-19T01:02:01.643Z,1009.94
2016-01-19T01:03:01.693Z,1009.98
2016-01-19T01:04:01.743Z,1009.97
2016-01-19T01:05:01.824Z,1009.94
2016-01-19T01:06:01.875Z,1009.94
2016-01-19T01:07:01.923Z,1009.93
2016-01-19T01:08:01.973Z,1009.89
2016-01-19T01:09:02.023Z,1009.92
2016-01-19T01:10:02.104Z,1009.9
2016-01-19T01:11:02.154Z,1009.91
2016-01-19T01:12:02.204Z,1009.87
2016-01-19T01:13:02.253Z,1009.85
2016-01-19T01:14:02.317Z,1009.81
2016-01-19T01:15:02.367Z,1009.83
2016-01-19T01:16:02.417Z,1009.79
2016-01-19T01:17:02.482Z,1009.82
2016-01-19T01:18:02.532Z,1009.8
2016-01-19T01:19:02.597Z,1009.82
2016-01-19T01:20:02.647Z,1009.83
2016-01-19T01:21:02.681Z,1009.81
2016-01-19T01:22:02.745Z,1009.79
2016-01-19T01:23:02.811Z,1009.84
2016-01-19T01:24:02.860Z,1009.81
2016-01-19T01:25:02.911Z,1009.79
2016-01-19T01:26:02.959Z,1009.76
2016-01-19T01:27:03.041Z,1009.74
2016-01-19T01:28:03.089Z,1009.73
2016-01-19T01:29:03.140Z,1009.71
2016-01-19T01:30:03.189Z,1009.69
2016-01-19T01:31:03.254Z,1009.69
2016-01-19T01:32:03.305Z,1009.74
2016-01-19T01:33:03.353Z,1009.73
2016-01-19T01:34:03.419Z,1009.75
2016-01-19T01:35:03.469Z,1009.77
2016-01-19T01:36:03.534Z,1009.77
2016-01-19T01:37:03.568Z,1009.78
2016-01-19T01:38:03.648Z,1009.74
2016-01-19T01:39:03.699Z,1009.76
2016-01-19T01:40:03.747Z,1009.79
2016-01-19T01:41:03.797Z,1009.78
2016-01-19T01:42:03.862Z,1009.75
2016-01-19T01:43:03.896Z,1009.74
2016-01-19T01:44:03.962Z,1009.77
2016-01-19T01:45:04.027Z,1009.77
2016-01-19T01:46:04.077Z,1009.75
2016-01-19T01:47:04.125Z,1009.77
2016-01-19T01:48:04.207Z,1009.79
2016-01-19T01:49:04.240Z,1009.75
2016-01-19T01:50:04.290Z,1009.72
2016-01-19T01:51:04.370Z,1009.71
2016-01-19T01:52:04.405Z,1009.73
2016-01-19T01:53:04.470Z,1009.71
2016-01-19T01:54:04.520Z,1009.68
2016-01-19T01:55:04.585Z,1009.68
2016-01-19T01:56:04.634Z,1009.7
2016-01-19T01:57:04.700Z,1009.69
2016-01-19T01:58:04.733Z,1009.68
2016-01-19T01:59:04.798Z,1009.7
2016-01-19T02:00:04.848Z,1009.66
2016-01-19T02:01:04.913Z,1009.66
2016-01-19T02:02:04.947Z,1009.64
2016-01-19T02:03:05.004Z,1009.66
2016-01-19T02:04:05.054Z,1009.66
2016-01-19T02:05:05.118Z,1009.58
2016-01-19T02:06:05.184Z,1009.6
2016-01-19T02:07:05.233Z,1009.56
2016-01-19T02:08:05.282Z,1009.56
2016-01-19T02:09:05.348Z,1009.58
2016-01-19T02:10:05.398Z,1009.55
2016-01-19T02:11:05.448Z,1009.56
2016-01-19T02:12:05.497Z,1009.56
2016-01-19T02:13:05.554Z,1009.58
2016-01-19T02:14:05.628Z,1009.59
2016-01-19T02:15:05.670Z,1009.61
2016-01-19T02:16:05.801Z,1009.6
2016-01-19T02:17:05.848Z,1009.62
2016-01-19T02:18:05.835Z,1009.59
2016-01-19T02:19:05.873Z,1009.57
2016-01-19T02:20:05.923Z,1009.6
2016-01-19T02:21:05.988Z,1009.61
2016-01-19T02:22:06.038Z,1009.57
2016-01-19T02:23:06.104Z,1009.58
2016-01-19T02:24:06.169Z,1009.6
2016-01-19T02:25:06.218Z,1009.57
2016-01-19T02:26:06.255Z,1009.57
2016-01-19T02:27:06.321Z,1009.57
2016-01-19T02:28:06.385Z,1009.56
2016-01-19T02:29:06.435Z,1009.55
2016-01-19T02:30:06.485Z,1009.54
2016-01-19T02:31:06.551Z,1009.52
2016-01-19T02:32:06.599Z,1009.5
2016-01-19T02:33:06.649Z,1009.54
2016-01-19T02:34:06.714Z,1009.52
2016-01-19T02:35:06.765Z,1009.52
2016-01-19T02:36:06.814Z,1009.49
2016-01-19T02:37:06.878Z,1009.51
2016-01-19T02:38:06.928Z,1009.47
2016-01-19T02:39:06.978Z,1009.49
2016-01-19T02:40:07.043Z,1009.47
2016-01-19T02:41:07.092Z,1009.45
2016-01-19T02:42:07.143Z,1009.41
2016-01-19T02:43:07.208Z,1009.44
2016-01-19T02:44:07.257Z,1009.42
2016-01-19T02:45:07.306Z,1009.46
2016-01-19T02:46:07.371Z,1009.42
2016-01-19T02:47:07.406Z,1009.42
2016-01-19T02:48:07.486Z,1009.44
2016-01-19T02:49:08.036Z,1009.44
2016-01-19T02:50:07.567Z,1009.42
2016-01-19T02:51:07.632Z,1009.41
2016-01-19T02:52:07.698Z,1009.41
2016-01-19T02:53:07.732Z,1009.44
2016-01-19T02:54:07.797Z,1009.38
2016-01-19T02:55:07.878Z,1009.42
2016-01-19T02:56:07.909Z,1009.38
2016-01-19T02:57:07.944Z,1009.36
2016-01-19T02:58:07.994Z,1009.36
2016-01-19T02:59:08.028Z,1009.34
2016-01-19T03:00:08.063Z,1009.35
2016-01-19T03:01:08.098Z,1009.34
2016-01-19T03:02:08.142Z,1009.29
2016-01-19T03:03:08.191Z,1009.33
2016-01-19T03:04:08.254Z,1009.31
2016-01-19T03:05:08.298Z,1009.28
2016-01-19T03:06:08.343Z,1009.25
2016-01-19T03:07:08.407Z,1009.22
2016-01-19T03:08:08.454Z,1009.19
2016-01-19T03:09:08.501Z,1009.17
2016-01-19T03:10:08.565Z,1009.19
2016-01-19T03:11:08.613Z,1009.18
2016-01-19T03:12:08.677Z,1009.17
2016-01-19T03:13:08.726Z,1009.18
2016-01-19T03:14:08.775Z,1009.23
2016-01-19T03:15:08.840Z,1009.21
2016-01-19T03:16:08.888Z,1009.19
2016-01-19T03:17:08.938Z,1009.18
2016-01-19T03:18:09.003Z,1009.17
2016-01-19T03:19:09.037Z,1009.17
2016-01-19T03:20:09.117Z,1009.17
2016-01-19T03:21:09.168Z,1009.14
2016-01-19T03:22:09.217Z,1009.14
2016-01-19T03:23:09.267Z,1009.16
2016-01-19T03:24:09.331Z,1009.15
2016-01-19T03:25:09.381Z,1009.12
2016-01-19T03:26:09.431Z,1009.11
2016-01-19T03:27:09.497Z,1009.15
2016-01-19T03:28:09.545Z,1009.17
2016-01-19T03:29:09.595Z,1009.18
2016-01-19T03:30:09.661Z,1009.2
2016-01-19T03:31:09.710Z,1009.21
2016-01-19T03:32:09.760Z,1009.23
2016-01-19T03:33:09.825Z,1009.15
2016-01-19T03:34:09.874Z,1009.18
2016-01-19T03:35:09.924Z,1009.17
2016-01-19T03:36:09.974Z,1009.21
2016-01-19T03:37:10.024Z,1009.17
2016-01-19T03:38:10.072Z,1009.21
2016-01-19T03:39:10.154Z,1009.22
2016-01-19T03:40:10.202Z,1009.27
2016-01-19T03:41:10.253Z,1009.3
2016-01-19T03:42:10.302Z,1009.36
2016-01-19T03:43:10.367Z,1009.34
2016-01-19T03:44:10.418Z,1009.37
2016-01-19T03:45:10.465Z,1009.42
2016-01-19T03:46:10.516Z,1009.4
2016-01-19T03:47:10.566Z,1009.35
2016-01-19T03:48:10.631Z,1009.41
2016-01-19T03:49:10.680Z,1009.43
2016-01-19T03:50:10.729Z,1009.44
2016-01-19T03:51:11.201Z,1009.45
2016-01-19T03:52:10.845Z,1009.43
2016-01-19T03:53:10.909Z,1009.44
2016-01-19T03:54:10.959Z,1009.45
2016-01-19T03:55:11.025Z,1009.44
2016-01-19T03:56:11.059Z,1009.42
2016-01-19T03:57:11.123Z,1009.43
2016-01-19T03:58:11.173Z,1009.38
2016-01-19T03:59:11.253Z,1009.35
2016-01-19T04:00:11.289Z,1009.33
2016-01-19T04:01:11.338Z,1009.32
2016-01-19T04:02:11.403Z,1009.33
2016-01-19T04:03:11.452Z,1009.29
2016-01-19T04:04:11.502Z,1009.28
2016-01-19T04:05:11.567Z,1009.27
2016-01-19T04:06:11.616Z,1009.25
2016-01-19T04:07:11.667Z,1009.24
2016-01-19T04:08:11.716Z,1009.24
2016-01-19T04:09:11.766Z,1009.28
2016-01-19T04:10:11.846Z,1009.3
2016-01-19T04:11:11.896Z,1009.33
2016-01-19T04:12:11.946Z,1009.29
2016-01-19T04:13:11.995Z,1009.32
2016-01-19T04:14:12.044Z,1009.27
2016-01-19T04:15:12.094Z,1009.28
2016-01-19T04:16:12.159Z,1009.26
2016-01-19T04:17:12.209Z,1009.29
2016-01-19T04:18:12.290Z,1009.28
2016-01-19T04:19:12.324Z,1009.32
2016-01-19T04:20:12.374Z,1009.29
2016-01-19T04:21:12.437Z,1009.33
2016-01-19T04:22:12.487Z,1009.3
2016-01-19T04:23:12.537Z,1009.26
2016-01-19T04:24:12.603Z,1009.26
2016-01-19T04:25:12.652Z,1009.23
2016-01-19T04:26:12.701Z,1009.26
2016-01-19T04:27:12.767Z,1009.24
2016-01-19T04:28:12.817Z,1009.27
2016-01-19T04:29:12.866Z,1009.26
2016-01-19T04:30:12.916Z,1009.27
2016-01-19T04:31:12.965Z,1009.27
2016-01-19T04:32:13.046Z,1009.25
2016-01-19T04:33:13.080Z,1009.33
2016-01-19T04:34:13.161Z,1009.32
2016-01-19T04:35:13.195Z,1009.28
2016-01-19T04:36:13.245Z,1009.32
2016-01-19T04:37:13.294Z,1009.32
2016-01-19T04:38:13.375Z,1009.31
2016-01-19T04:39:13.408Z,1009.31
2016-01-19T04:40:13.458Z,1009.32
2016-01-19T04:41:13.508Z,1009.34
2016-01-19T04:42:13.574Z,1009.35
2016-01-19T04:43:13.622Z,1009.32
2016-01-19T04:44:13.687Z,1009.31
2016-01-19T04:45:13.738Z,1009.33
2016-01-19T04:46:13.787Z,1009.29
2016-01-19T04:47:13.837Z,1009.3
2016-01-19T04:48:13.901Z,1009.27
2016-01-19T04:49:13.952Z,1009.31
2016-01-19T04:50:14.001Z,1009.28
2016-01-19T04:51:14.066Z,1009.32
2016-01-19T04:52:14.115Z,1009.28
2016-01-19T04:53:14.181Z,1009.29
2016-01-19T04:54:14.231Z,1009.29
2016-01-19T04:55:14.279Z,1009.26
2016-01-19T04:56:14.329Z,1009.23
2016-01-19T04:57:14.378Z,1009.26
2016-01-19T04:58:14.445Z,1009.29
2016-01-19T04:59:14.494Z,1009.26
2016-01-19T05:00:14.559Z,1009.27
2016-01-19T05:01:14.609Z,1009.31
2016-01-19T05:02:14.673Z,1009.33
2016-01-19T05:03:14.708Z,1009.35
2016-01-19T05:04:14.758Z,1009.38
2016-01-19T05:05:14.806Z,1009.37
2016-01-19T05:06:14.872Z,1009.42
2016-01-19T05:07:14.922Z,1009.41
2016-01-19T05:08:15.002Z,1009.4
2016-01-19T05:09:15.036Z,1009.43
2016-01-19T05:10:15.102Z,1009.39
2016-01-19T05:11:15.135Z,1009.4
2016-01-19T05:12:15.200Z,1009.35
2016-01-19T05:13:15.249Z,1009.36
2016-01-19T05:14:15.315Z,1009.36
2016-01-19T05:15:15.365Z,1009.33
2016-01-19T05:16:15.415Z,1009.37
2016-01-19T05:17:15.463Z,1009.32
2016-01-19T05:18:15.529Z,1009.34
2016-01-19T05:19:15.579Z,1009.38
2016-01-19T05:20:15.644Z,1009.37
2016-01-19T05:21:15.694Z,1009.39
2016-01-19T05:22:15.743Z,1009.43
2016-01-19T05:23:15.809Z,1009.44
2016-01-19T05:24:15.857Z,1009.47
2016-01-19T05:25:15.908Z,1009.47
2016-01-19T05:26:15.956Z,1009.46
2016-01-19T05:27:16.023Z,1009.46
2016-01-19T05:28:16.057Z,1009.49
2016-01-19T05:29:16.121Z,1009.45
2016-01-19T05:30:16.187Z,1009.49
2016-01-19T05:31:16.236Z,1009.49
2016-01-19T05:32:16.286Z,1009.51
2016-01-19T05:33:16.335Z,1009.49
2016-01-19T05:34:16.401Z,1009.5
2016-01-19T05:35:16.450Z,1009.5
2016-01-19T05:36:16.515Z,1009.54
2016-01-19T05:37:16.565Z,1009.52
2016-01-19T05:38:16.600Z,1009.52
2016-01-19T05:39:16.664Z,1009.55
2016-01-19T05:40:16.730Z,1009.55
2016-01-19T05:41:16.778Z,1009.57
2016-01-19T05:42:16.828Z,1009.59
2016-01-19T05:43:16.878Z,1009.64
2016-01-19T05:44:16.928Z,1009.63
2016-01-19T05:45:16.977Z,1009.7
2016-01-19T05:46:17.042Z,1009.66
2016-01-19T05:47:17.108Z,1009.66
2016-01-19T05:48:17.157Z,1009.72
2016-01-19T05:49:17.206Z,1009.65
2016-01-19T05:50:17.272Z,1009.64
2016-01-19T05:51:17.338Z,1009.67
2016-01-19T05:52:17.371Z,1009.66
2016-01-19T05:53:17.421Z,1009.67
2016-01-19T05:54:17.470Z,1009.61
2016-01-19T05:55:17.520Z,1009.64
2016-01-19T05:56:17.601Z,1009.62
2016-01-19T05:57:17.634Z,1009.62
2016-01-19T05:58:18.044Z,1009.65
2016-01-19T05:59:18.687Z,1009.58
2016-01-19T06:00:18.221Z,1009.59
2016-01-19T06:01:18.442Z,1009.62
2016-01-19T06:02:18.867Z,1009.58
2016-01-19T06:03:18.823Z,1009.51
2016-01-19T06:04:18.810Z,1009.58
2016-01-19T06:05:18.375Z,1009.57
2016-01-19T06:06:18.175Z,1009.61
2016-01-19T06:07:18.177Z,1009.63
2016-01-19T06:08:18.226Z,1009.65
2016-01-19T06:09:18.276Z,1009.64
2016-01-19T06:10:18.342Z,1009.63
2016-01-19T06:11:18.391Z,1009.6
2016-01-19T06:12:18.441Z,1009.64
2016-01-19T06:13:18.506Z,1009.63
2016-01-19T06:14:18.556Z,1009.65
2016-01-19T06:15:18.605Z,1009.67
2016-01-19T06:16:19.155Z,1009.69
2016-01-19T06:17:19.813Z,1009.68
2016-01-19T06:18:19.753Z,1009.63
2016-01-19T06:19:18.819Z,1009.63
2016-01-19T06:20:18.884Z,1009.62
2016-01-19T06:21:18.934Z,1009.61
2016-01-19T06:22:18.983Z,1009.6
2016-01-19T06:23:19.924Z,1009.57
2016-01-19T06:24:19.098Z,1009.58
2016-01-19T06:25:19.538Z,1009.63
2016-01-19T06:26:19.760Z,1009.62
2016-01-19T06:27:19.340Z,1009.63
2016-01-19T06:28:19.671Z,1009.62
2016-01-19T06:29:20.127Z,1009.61
2016-01-19T06:30:19.771Z,1009.63
2016-01-19T06:31:19.555Z,1009.62
2016-01-19T06:32:20.495Z,1009.6
2016-01-19T06:33:20.544Z,1009.56
2016-01-19T06:34:19.626Z,1009.61
2016-01-19T06:35:19.690Z,1009.6
2016-01-19T06:36:19.739Z,1009.61
2016-01-19T06:37:19.789Z,1009.65
2016-01-19T06:38:19.854Z,1009.65
2016-01-19T06:39:19.904Z,1009.62
2016-01-19T06:40:19.953Z,1009.6
2016-01-19T06:41:20.003Z,1009.57
2016-01-19T06:42:20.084Z,1009.59
2016-01-19T06:43:20.118Z,1009.56
2016-01-19T06:44:20.167Z,1009.58
2016-01-19T06:45:20.232Z,1009.57
2016-01-19T06:46:20.282Z,1009.58
2016-01-19T06:47:20.331Z,1009.59
2016-01-19T06:48:20.381Z,1009.61
2016-01-19T06:49:20.447Z,1009.59
2016-01-19T06:50:20.496Z,1009.6
2016-01-19T06:51:20.546Z,1009.59
2016-01-19T06:52:20.611Z,1009.62
2016-01-19T06:53:20.661Z,1009.64
2016-01-19T06:54:20.710Z,1009.63
2016-01-19T06:55:20.774Z,1009.63
2016-01-19T06:56:20.824Z,1009.6
2016-01-19T06:57:20.874Z,1009.61
2016-01-19T06:58:20.924Z,1009.64
2016-01-19T06:59:20.988Z,1009.61
2016-01-19T07:00:21.039Z,1009.58
2016-01-19T07:01:21.088Z,1009.57
2016-01-19T07:02:21.137Z,1009.59
2016-01-19T07:03:21.204Z,1009.55
2016-01-19T07:04:21.252Z,1009.55
2016-01-19T07:05:21.302Z,1009.57
2016-01-19T07:06:21.367Z,1009.55
2016-01-19T07:07:21.417Z,1009.55
2016-01-19T07:08:21.467Z,1009.52
2016-01-19T07:09:21.516Z,1009.52
2016-01-19T07:10:21.582Z,1009.5
2016-01-19T07:11:21.631Z,1009.52
2016-01-19T07:12:21.680Z,1009.54
2016-01-19T07:13:21.745Z,1009.56
2016-01-19T07:14:21.795Z,1009.56
2016-01-19T07:15:21.844Z,1009.55
2016-01-19T07:16:21.894Z,1009.56
2016-01-19T07:17:21.959Z,1009.53
2016-01-19T07:18:22.009Z,1009.52
2016-01-19T07:19:22.058Z,1009.51
2016-01-19T07:20:22.108Z,1009.53
2016-01-19T07:21:22.172Z,1009.56
2016-01-19T07:22:22.222Z,1009.53
2016-01-19T07:23:22.272Z,1009.53
2016-01-19T07:24:22.322Z,1009.5
2016-01-19T07:25:22.387Z,1009.45
2016-01-19T07:26:22.436Z,1009.42
2016-01-19T07:27:22.486Z,1009.42
2016-01-19T07:28:22.552Z,1009.46
2016-01-19T07:29:22.601Z,1009.45
2016-01-19T07:30:22.651Z,1009.52
2016-01-19T07:31:22.715Z,1009.51
2016-01-19T07:32:22.765Z,1009.5
2016-01-19T07:33:22.815Z,1009.48
2016-01-19T07:34:22.865Z,1009.44
2016-01-19T07:35:22.930Z,1009.47
2016-01-19T07:36:22.979Z,1009.44
2016-01-19T07:37:23.029Z,1009.45
2016-01-19T07:38:23.079Z,1009.49
2016-01-19T07:39:23.143Z,1009.51
2016-01-19T07:40:23.256Z,1009.54
2016-01-19T07:41:23.320Z,1009.54
2016-01-19T07:42:23.292Z,1009.55
2016-01-19T07:43:23.342Z,1009.57
2016-01-19T07:44:23.407Z,1009.6
2016-01-19T07:45:23.457Z,1009.57
2016-01-19T07:46:23.506Z,1009.55
2016-01-19T07:47:23.572Z,1009.53
2016-01-19T07:48:23.620Z,1009.53
2016-01-19T07:49:23.670Z,1009.54
2016-01-19T07:50:23.719Z,1009.58
2016-01-19T07:51:23.785Z,1009.57
2016-01-19T07:52:23.835Z,1009.54
2016-01-19T07:53:23.884Z,1009.56
2016-01-19T07:54:23.933Z,1009.55
2016-01-19T07:55:23.999Z,1009.61
2016-01-19T07:56:24.048Z,1009.59
2016-01-19T07:57:24.099Z,1009.55
2016-01-19T07:58:24.163Z,1009.59
2016-01-19T07:59:24.197Z,1009.59
2016-01-19T08:00:24.262Z,1009.57
2016-01-19T08:01:24.312Z,1009.55
2016-01-19T08:02:24.362Z,1009.56
2016-01-19T08:03:24.427Z,1009.56
2016-01-19T08:04:24.476Z,1009.58
2016-01-19T08:05:24.526Z,1009.58
2016-01-19T08:06:24.590Z,1009.59
2016-01-19T08:07:24.640Z,1009.63
2016-01-19T08:08:24.706Z,1009.61
2016-01-19T08:09:24.740Z,1009.6
2016-01-19T08:10:24.789Z,1009.58
2016-01-19T08:11:24.870Z,1009.6
2016-01-19T08:12:24.904Z,1009.61
2016-01-19T08:13:25.016Z,1009.64
2016-01-19T08:14:25.020Z,1009.64
2016-01-19T08:15:25.084Z,1009.64
2016-01-19T08:16:25.133Z,1009.58
2016-01-19T08:17:25.183Z,1009.62
2016-01-19T08:18:25.233Z,1009.62
2016-01-19T08:19:25.283Z,1009.62
2016-01-19T08:20:25.332Z,1009.64
2016-01-19T08:21:25.397Z,1009.65
2016-01-19T08:22:25.447Z,1009.67
2016-01-19T08:23:25.496Z,1009.63
2016-01-19T08:24:25.562Z,1009.68
2016-01-19T08:25:25.595Z,1009.69
2016-01-19T08:26:25.660Z,1009.7
2016-01-19T08:27:25.710Z,1009.7
2016-01-19T08:28:25.853Z,1009.7
2016-01-19T08:29:25.810Z,1009.67
2016-01-19T08:30:25.874Z,1009.69
2016-01-19T08:31:25.924Z,1009.73
2016-01-19T08:32:25.974Z,1009.66
2016-01-19T08:33:26.023Z,1009.67
2016-01-19T08:34:26.088Z,1009.63
2016-01-19T08:35:26.137Z,1009.67
2016-01-19T08:36:26.187Z,1009.68
2016-01-19T08:37:26.237Z,1009.71
2016-01-19T08:38:26.302Z,1009.73
2016-01-19T08:39:26.352Z,1009.74
2016-01-19T08:40:26.401Z,1009.73
2016-01-19T08:41:26.451Z,1009.76
2016-01-19T08:42:27.047Z,1009.78
2016-01-19T08:43:26.565Z,1009.81
2016-01-19T08:44:26.615Z,1009.8
2016-01-19T08:45:26.790Z,1009.82
2016-01-19T08:46:26.730Z,1009.81
2016-01-19T08:47:26.779Z,1009.85
2016-01-19T08:48:26.829Z,1009.91
2016-01-19T08:49:26.895Z,1009.89
2016-01-19T08:50:27.022Z,1009.88
2016-01-19T08:51:27.087Z,1009.89
2016-01-19T08:52:27.042Z,1009.93
2016-01-19T08:53:27.108Z,1009.95
2016-01-19T08:54:27.158Z,1009.95
2016-01-19T08:55:27.286Z,1009.99
2016-01-19T08:56:27.258Z,1009.98
2016-01-19T08:57:27.322Z,1009.99
2016-01-19T08:58:27.372Z,1009.97
2016-01-19T08:59:27.422Z,1010.01
2016-01-19T09:00:27.471Z,1010
2016-01-19T09:01:27.614Z,1009.99
2016-01-19T09:02:27.664Z,1010.01
2016-01-19T09:03:27.636Z,1009.95
2016-01-19T09:04:27.700Z,1009.91
2016-01-19T09:05:27.749Z,1009.92
2016-01-19T09:06:27.893Z,1009.93
2016-01-19T09:07:27.849Z,1009.94
2016-01-19T09:08:27.898Z,1009.99
2016-01-19T09:09:27.963Z,1010.02
2016-01-19T09:10:28.013Z,1010.05
2016-01-19T09:11:28.062Z,1010.02
2016-01-19T09:12:28.129Z,1010.07
2016-01-19T09:13:28.178Z,1010.08
2016-01-19T09:14:28.227Z,1010.07
2016-01-19T09:15:28.276Z,1010.06
2016-01-19T09:16:28.326Z,1010.07
2016-01-19T09:17:28.484Z,1010.08
2016-01-19T09:18:28.441Z,1010.08
2016-01-19T09:19:28.490Z,1010.09
2016-01-19T09:20:28.556Z,1010.12
2016-01-19T09:21:28.606Z,1010.12
2016-01-19T09:22:28.655Z,1010.08
2016-01-19T09:23:28.705Z,1010.09
2016-01-19T09:24:28.769Z,1010.1
2016-01-19T09:25:28.898Z,1010.1
2016-01-19T09:26:28.884Z,1010.07
2016-01-19T09:27:28.919Z,1010.07
2016-01-19T09:28:28.983Z,1010.08
2016-01-19T09:29:29.033Z,1010.07
2016-01-19T09:30:29.082Z,1010.07
2016-01-19T09:31:29.132Z,1010.06
2016-01-19T09:32:29.213Z,1010.02
2016-01-19T09:33:29.247Z,1010.05
2016-01-19T09:34:29.297Z,1010.02
2016-01-19T09:35:29.346Z,1010.05
2016-01-19T09:36:29.411Z,1010
2016-01-19T09:37:29.461Z,1010
2016-01-19T09:38:29.511Z,1009.98
2016-01-19T09:39:29.560Z,1009.98
2016-01-19T09:40:29.626Z,1009.99
2016-01-19T09:41:29.675Z,1009.95
2016-01-19T09:42:29.725Z,1009.94
